Sandy Hook, Missouri
Current Conditions -  °F | °C
As of 1:54 AM on Friday 19 Dec 2014 (Local Time) from KCOU Reporting Station
Haze Haze  
Wind Chill: 27°   Ceiling: 400
Heat Index: 32°   Visibility: 3mi
Dew Point: 31°   Wind: 5mph
Humidity: 96%   Direction: 80°E
Pressure: 30.26"   Gusts: NA
Location:  38.7914°N, 92.4851°W
Report Text: KCOU 190754Z AUTO 08004KT 3SM BR OVC004 00/M01 A3026 RMK AO2 SLP253 T00001006
Loading
Personal Weather Stations






























Interactive Weather Map New forecast layout! Learn more

10-Day Weather Forecast

Advertisements
Track Severe Weather on mobile